Time;durP1;ratioP1;P1;durP2;ratioP2;P2;SDS_P1;SDS_P2;PMS_P1;PMS_P2;Temp;Humidity;BMP_temperature;BMP_pressure;BME280_temperature;BME280_humidity;BME280_pressure;Samples;Min_cycle;Max_cycle;Signal;HPM_P1;HPM_P2
2022/01/06 00:00:04;;;;;;;7.43;2.05;;;20.80;53.20;;;;;;4995760;28;20070;-59
2022/01/06 00:02:29;;;;;;;6.30;2.10;;;20.80;53.30;;;;;;4996559;28;20050;-58
2022/01/06 00:04:55;;;;;;;7.03;2.10;;;20.70;53.30;;;;;;4996498;28;20046;-58
2022/01/06 00:07:20;;;;;;;7.15;2.38;;;20.70;53.40;;;;;;4995463;28;20042;-59
2022/01/06 00:09:48;;;;;;;8.15;2.45;;;20.70;53.50;;;;;;4996360;28;20053;-59
2022/01/06 00:12:16;;;;;;;6.13;2.03;;;20.70;53.50;;;;;;4996659;28;20038;-59
2022/01/06 00:18:12;;;;;;;7.75;2.25;;;20.60;53.70;;;;;;4996220;28;20046;-58
2022/01/06 00:23:31;;;;;;;6.25;2.30;;;20.60;53.90;;;;;;4995651;28;20081;-59
2022/01/06 00:25:57;;;;;;;5.10;2.17;;;20.50;53.80;;;;;;4994376;28;20125;-58
2022/01/06 00:28:23;;;;;;;6.32;1.73;;;20.50;53.70;;;;;;4995155;28;20120;-58
2022/01/06 00:30:48;;;;;;;6.25;2.13;;;20.50;53.80;;;;;;4995836;28;20406;-59
2022/01/06 00:33:14;;;;;;;8.73;2.40;;;20.50;53.80;;;;;;4996053;28;20081;-58
2022/01/06 00:35:40;;;;;;;7.15;2.60;;;20.50;53.80;;;;;;4995283;28;20050;-59
2022/01/06 00:38:07;;;;;;;8.88;2.33;;;20.50;53.80;;;;;;4995936;28;20046;-59
2022/01/06 00:40:36;;;;;;;7.30;2.25;;;20.40;53.70;;;;;;4995677;28;20113;-58
2022/01/06 00:43:03;;;;;;;6.65;2.65;;;20.40;53.70;;;;;;4994244;28;20049;-58
2022/01/06 00:45:29;;;;;;;4.97;2.25;;;20.40;53.70;;;;;;4995702;28;20080;-59
2022/01/06 00:47:55;;;;;;;6.22;2.40;;;20.40;53.70;;;;;;4994346;28;20082;-58
2022/01/06 00:50:20;;;;;;;6.22;2.33;;;20.40;53.70;;;;;;4994945;28;20050;-58
2022/01/06 00:52:46;;;;;;;8.00;2.35;;;20.30;54.30;;;;;;4994249;28;20069;-58
2022/01/06 00:55:11;;;;;;;6.88;2.50;;;20.30;53.60;;;;;;4995517;28;20133;-58
2022/01/06 00:57:38;;;;;;;6.80;2.75;;;20.30;53.70;;;;;;4995338;28;20048;-59
2022/01/06 01:00:05;;;;;;;6.90;2.70;;;20.30;53.70;;;;;;4993904;28;20039;-59
2022/01/06 01:02:30;;;;;;;7.43;2.40;;;20.30;53.60;;;;;;4995561;28;20042;-59
2022/01/06 01:04:56;;;;;;;6.40;2.08;;;20.30;53.70;;;;;;4994441;28;20109;-59
2022/01/06 01:07:21;;;;;;;6.68;2.28;;;20.30;53.70;;;;;;4995068;28;20077;-59
2022/01/06 01:09:47;;;;;;;5.15;1.98;;;20.30;53.70;;;;;;4995079;28;20046;-58
2022/01/06 01:12:12;;;;;;;5.82;2.30;;;20.20;53.60;;;;;;4994796;28;20038;-58
2022/01/06 01:15:05;;;;;;;6.57;2.30;;;20.20;53.60;;;;;;4994263;28;20053;-58
2022/01/06 01:17:31;;;;;;;5.22;2.13;;;20.20;53.60;;;;;;4994431;28;20121;-58
2022/01/06 01:19:56;;;;;;;7.20;2.40;;;20.20;53.60;;;;;;4993562;28;20160;-58
2022/01/06 01:22:22;;;;;;;5.20;1.90;;;20.20;53.70;;;;;;4994016;28;20108;-58
2022/01/06 01:24:48;;;;;;;5.32;2.10;;;20.20;53.70;;;;;;4993971;28;20039;-59
2022/01/06 01:27:15;;;;;;;6.60;2.10;;;20.10;53.50;;;;;;4995167;28;20082;-58
2022/01/06 01:29:56;;;;;;;6.60;2.80;;;20.10;53.60;;;;;;4993546;28;20463;-58
2022/01/06 01:32:28;;;;;;;9.75;1.92;;;20.20;53.60;;;;;;4993106;28;20046;-58
2022/01/06 01:34:59;;;;;;;6.35;2.38;;;20.10;53.70;;;;;;4994512;28;20057;-58
2022/01/06 01:37:25;;;;;;;5.35;2.00;;;20.10;53.70;;;;;;4992103;28;20046;-59
2022/01/06 01:39:50;;;;;;;6.68;2.10;;;20.10;53.70;;;;;;4993797;28;20060;-58
2022/01/06 01:42:16;;;;;;;5.65;2.00;;;20.00;53.70;;;;;;4994791;28;20053;-59
2022/01/06 01:44:42;;;;;;;5.95;1.52;;;20.10;53.80;;;;;;4994513;28;20042;-58
2022/01/06 01:47:14;;;;;;;5.97;1.83;;;20.10;53.80;;;;;;4993054;28;20053;-58
2022/01/06 01:50:13;;;;;;;6.93;1.90;;;20.00;53.70;;;;;;4993994;28;20133;-58
2022/01/06 01:52:31;;;;;;;6.72;2.13;;;20.10;53.80;;;;;;4991485;28;20414;-59
2022/01/06 01:54:57;;;;;;;6.07;2.15;;;20.00;53.80;;;;;;4992750;28;20512;-58
2022/01/06 01:57:22;;;;;;;7.55;1.90;;;20.00;53.80;;;;;;4994696;28;20467;-58
2022/01/06 01:59:48;;;;;;;5.78;2.15;;;20.00;53.80;;;;;;4991922;28;20046;-58
2022/01/06 02:02:13;;;;;;;6.78;2.25;;;20.00;53.80;;;;;;4994791;28;20125;-59
2022/01/06 02:04:39;;;;;;;4.85;1.95;;;20.00;53.80;;;;;;4994528;28;20121;-58
2022/01/06 02:07:04;;;;;;;5.63;1.90;;;20.00;53.80;;;;;;4993116;28;20521;-59
2022/01/06 02:09:30;;;;;;;7.57;2.10;;;20.00;53.80;;;;;;4994376;28;20054;-58
2022/01/06 02:11:55;;;;;;;5.13;1.95;;;20.00;53.80;;;;;;4993935;28;20556;-59
2022/01/06 02:14:25;;;;;;;4.93;1.98;;;20.00;53.80;;;;;;4993190;28;20050;-58
2022/01/06 02:16:53;;;;;;;4.63;1.45;;;19.90;53.80;;;;;;4992814;28;20047;-58
2022/01/06 02:19:19;;;;;;;5.45;1.90;;;19.90;53.80;;;;;;4994232;28;20088;-57
2022/01/06 02:21:44;;;;;;;6.03;1.98;;;19.90;53.80;;;;;;4993114;28;20070;-58
2022/01/06 02:24:10;;;;;;;5.90;1.60;;;19.90;53.80;;;;;;4993889;28;20126;-57
2022/01/06 02:26:35;;;;;;;4.70;1.90;;;19.90;53.70;;;;;;4994271;28;20088;-57
2022/01/06 02:29:01;;;;;;;4.55;1.52;;;19.90;53.80;;;;;;4990816;28;20054;-57
2022/01/06 02:31:27;;;;;;;5.25;1.80;;;19.90;53.80;;;;;;4993577;28;20474;-58
2022/01/06 02:33:53;;;;;;;4.35;1.55;;;19.90;53.80;;;;;;4992378;28;20038;-58
2022/01/06 02:36:19;;;;;;;3.92;1.30;;;19.90;53.80;;;;;;4993099;28;20509;-58
2022/01/06 02:38:45;;;;;;;4.20;1.80;;;19.90;53.70;;;;;;4992180;28;20057;-58
2022/01/06 02:41:11;;;;;;;4.85;1.70;;;19.90;53.70;;;;;;4993559;28;20050;-59
2022/01/06 02:43:37;;;;;;;3.53;1.50;;;19.90;53.70;;;;;;4991404;28;20046;-58
2022/01/06 02:46:03;;;;;;;3.88;1.52;;;19.90;53.70;;;;;;4992094;28;20048;-58
2022/01/06 02:48:29;;;;;;;5.93;1.73;;;19.90;53.60;;;;;;4992454;28;20042;-58
2022/01/06 02:50:54;;;;;;;5.47;1.70;;;19.90;53.60;;;;;;4992624;28;20438;-58
2022/01/06 02:53:20;;;;;;;4.88;1.67;;;19.90;53.50;;;;;;4992277;28;20096;-58
2022/01/06 02:55:50;;;;;;;4.65;1.48;;;19.90;53.50;;;;;;4991482;28;20089;-59
2022/01/06 02:58:17;;;;;;;5.53;1.40;;;19.90;53.50;;;;;;4993742;28;20054;-59
2022/01/06 03:00:43;;;;;;;4.25;1.50;;;19.90;53.50;;;;;;4992018;28;20053;-58
2022/01/06 03:03:08;;;;;;;5.57;1.73;;;19.90;53.50;;;;;;4992782;28;20073;-58
2022/01/06 03:05:34;;;;;;;3.60;1.52;;;19.90;53.40;;;;;;4992647;28;20046;-59
2022/01/06 03:08:00;;;;;;;4.38;1.50;;;20.00;53.50;;;;;;4992770;28;20552;-59
2022/01/06 03:10:27;;;;;;;6.10;1.60;;;19.90;53.40;;;;;;4992286;28;20046;-59
2022/01/06 03:12:53;;;;;;;3.45;1.27;;;19.90;53.50;;;;;;4992756;28;20387;-58
2022/01/06 03:15:22;;;;;;;3.75;1.33;;;20.00;53.50;;;;;;4992188;28;20049;-59
2022/01/06 03:17:49;;;;;;;6.40;1.90;;;20.00;53.50;;;;;;4991074;28;20050;-59
2022/01/06 03:20:15;;;;;;;4.13;1.30;;;20.00;53.50;;;;;;4993457;28;20049;-59
2022/01/06 03:22:41;;;;;;;4.47;1.25;;;20.00;53.50;;;;;;4992937;28;20051;-58
2022/01/06 03:25:08;;;;;;;4.28;1.48;;;19.90;53.40;;;;;;4992710;28;20493;-59
2022/01/06 03:27:33;;;;;;;4.32;1.38;;;20.00;53.50;;;;;;4993514;28;20065;-58
2022/01/06 03:29:59;;;;;;;4.28;1.35;;;20.00;53.50;;;;;;4992785;28;20125;-58
2022/01/06 03:32:24;;;;;;;4.22;1.40;;;20.00;53.50;;;;;;4992555;28;20122;-58
2022/01/06 03:34:50;;;;;;;3.70;1.27;;;20.00;53.50;;;;;;4992954;28;20042;-58
2022/01/06 03:37:16;;;;;;;4.68;1.20;;;20.00;53.50;;;;;;4993298;28;20038;-58
2022/01/06 03:39:42;;;;;;;3.25;1.00;;;20.00;53.50;;;;;;4991828;28;20042;-58
2022/01/06 03:42:08;;;;;;;3.40;1.00;;;20.00;53.50;;;;;;4993396;28;20113;-59
2022/01/06 03:44:34;;;;;;;2.83;1.13;;;20.00;53.50;;;;;;4993269;28;20478;-58
2022/01/06 03:46:59;;;;;;;4.20;1.35;;;20.00;53.50;;;;;;4992094;28;20045;-58
2022/01/06 03:49:25;;;;;;;4.57;1.23;;;20.10;53.50;;;;;;4992002;28;20577;-59
2022/01/06 03:51:50;;;;;;;3.90;1.20;;;20.10;53.60;;;;;;4991621;28;20046;-59
2022/01/06 03:54:16;;;;;;;5.03;1.33;;;20.00;53.50;;;;;;4992384;28;20130;-58
2022/01/06 03:56:41;;;;;;;3.28;1.10;;;20.00;53.50;;;;;;4992754;28;20050;-58
2022/01/06 03:59:07;;;;;;;4.10;1.13;;;20.10;53.50;;;;;;4992328;28;20045;-59
2022/01/06 04:01:33;;;;;;;3.75;1.15;;;20.10;53.50;;;;;;4993212;28;20085;-58
2022/01/06 04:03:58;;;;;;;2.55;0.85;;;20.10;53.40;;;;;;4992719;28;20104;-58
2022/01/06 04:06:24;;;;;;;2.83;1.13;;;20.10;53.50;;;;;;4992300;28;20453;-58
2022/01/06 04:08:49;;;;;;;3.72;0.98;;;20.10;53.40;;;;;;4992233;28;20058;-58
2022/01/06 04:11:15;;;;;;;4.53;0.90;;;20.10;53.40;;;;;;4991492;28;20054;-59
2022/01/06 04:13:40;;;;;;;4.05;1.02;;;20.10;53.30;;;;;;4991964;28;20074;-59
2022/01/06 04:16:13;;;;;;;4.22;1.10;;;20.10;53.30;;;;;;4991436;28;20050;-58
2022/01/06 04:18:38;;;;;;;3.80;1.13;;;20.10;53.40;;;;;;4992996;28;20129;-58
2022/01/06 04:21:04;;;;;;;2.88;0.85;;;20.20;53.30;;;;;;4991848;28;20178;-58
2022/01/06 04:23:29;;;;;;;3.90;1.15;;;20.20;53.30;;;;;;4992628;28;20405;-58
2022/01/06 04:25:55;;;;;;;3.72;0.93;;;20.10;53.30;;;;;;4995935;28;20085;-58
2022/01/06 04:28:20;;;;;;;4.18;1.08;;;20.20;53.30;;;;;;4995692;28;20083;-58
2022/01/06 04:30:46;;;;;;;3.47;0.90;;;20.10;53.30;;;;;;4995599;28;20436;-58
2022/01/06 04:33:11;;;;;;;3.90;1.00;;;20.20;53.30;;;;;;4996282;28;20046;-58
2022/01/06 04:35:37;;;;;;;3.25;0.93;;;20.20;53.30;;;;;;4995597;28;20042;-59
2022/01/06 04:38:02;;;;;;;3.92;0.88;;;20.20;53.30;;;;;;4995776;28;20038;-58
2022/01/06 04:40:28;;;;;;;3.85;0.77;;;20.20;53.30;;;;;;4996084;28;20042;-59
2022/01/06 04:42:53;;;;;;;3.78;1.05;;;20.20;53.30;;;;;;4993978;28;20482;-59
2022/01/06 04:45:19;;;;;;;1.95;0.75;;;20.10;53.20;;;;;;4995687;28;20050;-58
2022/01/06 04:47:44;;;;;;;2.95;1.00;;;20.10;53.20;;;;;;4995399;28;20056;-59
2022/01/06 04:50:10;;;;;;;3.55;1.00;;;20.20;53.20;;;;;;4994115;28;20054;-59
2022/01/06 04:52:35;;;;;;;2.83;0.80;;;20.20;53.20;;;;;;4995424;28;20046;-58
2022/01/06 04:55:01;;;;;;;2.40;0.70;;;20.20;53.10;;;;;;4994509;28;20046;-58
2022/01/06 04:57:26;;;;;;;3.45;0.93;;;20.20;53.20;;;;;;4995107;28;20042;-58
2022/01/06 04:59:52;;;;;;;3.60;0.90;;;20.20;53.20;;;;;;4995282;28;20486;-58
2022/01/06 05:02:17;;;;;;;3.03;0.88;;;20.20;53.10;;;;;;4987946;28;20053;-58
2022/01/06 05:04:43;;;;;;;3.35;0.90;;;20.20;53.10;;;;;;5006391;28;20645;-58
2022/01/06 05:07:08;;;;;;;3.63;0.90;;;20.20;53.10;;;;;;5012615;28;20049;-59
2022/01/06 05:09:34;;;;;;;1.95;0.70;;;20.20;53.10;;;;;;5014535;28;20108;-58
2022/01/06 05:11:59;;;;;;;2.60;0.73;;;20.20;53.00;;;;;;5014449;28;20041;-58
2022/01/06 05:14:25;;;;;;;3.03;0.70;;;20.20;53.00;;;;;;5015050;28;20045;-58
2022/01/06 05:16:51;;;;;;;3.10;1.00;;;20.20;53.00;;;;;;5013883;28;20493;-59
2022/01/06 05:19:16;;;;;;;3.22;0.88;;;20.20;53.00;;;;;;5014930;28;20158;-59
2022/01/06 05:21:42;;;;;;;1.90;0.68;;;20.20;53.00;;;;;;5014472;28;20145;-59
2022/01/06 05:24:13;;;;;;;3.97;0.80;;;20.20;53.00;;;;;;5013989;28;20073;-58
2022/01/06 05:26:39;;;;;;;2.38;0.70;;;20.20;53.00;;;;;;5014964;28;20050;-58
2022/01/06 05:29:07;;;;;;;3.83;0.70;;;20.30;53.00;;;;;;5014376;28;20038;-58
2022/01/06 05:31:32;;;;;;;2.40;0.60;;;20.20;52.90;;;;;;5012624;28;20116;-58
2022/01/06 05:33:57;;;;;;;3.05;0.90;;;20.30;53.00;;;;;;5012670;28;20392;-58
2022/01/06 05:36:23;;;;;;;3.50;0.70;;;20.30;53.00;;;;;;5014417;28;20396;-58
2022/01/06 05:38:48;;;;;;;1.80;0.60;;;20.30;52.90;;;;;;5013550;28;20050;-58
2022/01/06 05:41:14;;;;;;;4.07;1.20;;;20.30;52.90;;;;;;5014523;28;20050;-58
2022/01/06 05:43:39;;;;;;;3.15;0.70;;;20.30;52.90;;;;;;5013481;28;20053;-58
2022/01/06 05:46:05;;;;;;;2.72;1.00;;;20.30;52.90;;;;;;5013498;28;20128;-58
2022/01/06 05:48:31;;;;;;;1.60;0.50;;;20.30;52.90;;;;;;5013014;28;20131;-58
2022/01/06 05:50:56;;;;;;;2.13;0.60;;;20.30;52.90;;;;;;5013809;28;20520;-59
2022/01/06 05:53:22;;;;;;;3.78;0.95;;;20.30;52.80;;;;;;5013199;28;20064;-59
2022/01/06 05:55:47;;;;;;;4.40;0.80;;;20.30;52.80;;;;;;5014092;28;20481;-58
2022/01/06 05:58:13;;;;;;;3.40;0.75;;;20.30;52.80;;;;;;5014105;28;20120;-59
2022/01/06 06:00:38;;;;;;;3.05;0.70;;;20.30;52.80;;;;;;5013248;28;20052;-58
2022/01/06 06:03:04;;;;;;;3.40;0.70;;;20.30;52.80;;;;;;5013434;28;20412;-58
2022/01/06 06:05:29;;;;;;;2.92;0.70;;;20.30;52.70;;;;;;5012396;28;20053;-58
2022/01/06 06:07:55;;;;;;;1.75;0.70;;;20.30;52.70;;;;;;5012996;28;20064;-58
2022/01/06 06:10:20;;;;;;;3.70;0.68;;;20.30;52.70;;;;;;5012603;28;20054;-58
2022/01/06 06:12:48;;;;;;;1.48;0.43;;;20.30;52.70;;;;;;5012603;28;20128;-58
2022/01/06 06:15:14;;;;;;;1.50;0.57;;;20.30;52.70;;;;;;5013839;28;20113;-58
2022/01/06 06:17:39;;;;;;;3.25;0.60;;;20.30;52.70;;;;;;5013902;28;20476;-58
2022/01/06 06:20:05;;;;;;;2.63;0.55;;;20.30;52.70;;;;;;5012527;28;20045;-59
2022/01/06 06:22:31;;;;;;;1.90;0.60;;;20.30;52.60;;;;;;5013450;28;20045;-59
2022/01/06 06:24:56;;;;;;;3.53;0.70;;;20.30;52.70;;;;;;5013329;28;20053;-58
2022/01/06 06:27:22;;;;;;;2.67;0.75;;;20.30;52.70;;;;;;5011370;28;20046;-58
2022/01/06 06:29:47;;;;;;;2.08;0.63;;;20.30;52.60;;;;;;5013276;28;20042;-58
2022/01/06 06:32:13;;;;;;;2.78;0.60;;;20.30;52.60;;;;;;5012362;28;20485;-58
2022/01/06 06:34:38;;;;;;;3.50;0.80;;;20.30;52.60;;;;;;5012785;28;20089;-58
2022/01/06 06:37:04;;;;;;;3.17;0.90;;;20.40;52.60;;;;;;5012017;28;20071;-58
2022/01/06 06:39:29;;;;;;;3.30;0.60;;;20.40;52.60;;;;;;5013239;28;20448;-58
2022/01/06 06:41:55;;;;;;;4.45;1.10;;;20.40;52.60;;;;;;5012231;28;20038;-57
2022/01/06 06:44:20;;;;;;;2.97;0.80;;;20.40;52.60;;;;;;5012273;28;20073;-58
2022/01/06 06:46:46;;;;;;;4.70;0.70;;;20.40;52.60;;;;;;5010973;28;20042;-58
2022/01/06 06:49:11;;;;;;;2.30;0.70;;;20.40;52.60;;;;;;5012318;28;20034;-58
2022/01/06 06:51:37;;;;;;;2.90;0.68;;;20.40;52.60;;;;;;5013015;28;20382;-58
2022/01/06 06:54:02;;;;;;;1.95;0.68;;;20.40;52.50;;;;;;5012719;28;20176;-58
2022/01/06 06:56:28;;;;;;;1.90;0.65;;;20.40;52.50;;;;;;5012667;28;20510;-58
2022/01/06 06:58:53;;;;;;;3.25;0.70;;;20.40;52.50;;;;;;5011710;28;20050;-58
2022/01/06 07:01:19;;;;;;;2.35;0.60;;;20.40;52.50;;;;;;5012993;28;20137;-58
2022/01/06 07:03:44;;;;;;;1.73;0.57;;;20.40;52.60;;;;;;5011904;28;20046;-58
2022/01/06 07:06:10;;;;;;;2.17;0.70;;;20.40;52.50;;;;;;5012838;28;20046;-58
2022/01/06 07:08:35;;;;;;;2.03;0.60;;;20.40;52.50;;;;;;5012979;28;20132;-59
2022/01/06 07:11:01;;;;;;;4.05;0.90;;;20.40;52.50;;;;;;5012127;28;20057;-58
2022/01/06 07:13:26;;;;;;;2.58;0.52;;;20.40;52.40;;;;;;5012927;28;20044;-58
2022/01/06 07:15:52;;;;;;;3.45;0.85;;;20.40;52.40;;;;;;5012126;28;20133;-59
2022/01/06 07:18:17;;;;;;;3.28;0.80;;;20.40;52.40;;;;;;5012693;28;20038;-58
2022/01/06 07:20:43;;;;;;;2.88;0.70;;;20.40;52.40;;;;;;5011108;28;20075;-59
2022/01/06 07:23:09;;;;;;;1.60;0.52;;;20.40;52.40;;;;;;5012483;28;20113;-59
2022/01/06 07:25:34;;;;;;;3.78;0.80;;;20.40;52.40;;;;;;5011489;28;20451;-59
2022/01/06 07:28:00;;;;;;;3.38;0.80;;;20.40;52.40;;;;;;5011413;28;20046;-59
2022/01/06 07:30:26;;;;;;;3.65;0.70;;;20.40;52.30;;;;;;5011092;28;20054;-59
2022/01/06 07:32:51;;;;;;;2.15;0.50;;;20.40;52.40;;;;;;5012509;28;20034;-58
2022/01/06 07:35:19;;;;;;;2.42;0.57;;;20.40;52.40;;;;;;5012590;28;20096;-59
2022/01/06 07:37:46;;;;;;;2.70;0.70;;;20.40;52.40;;;;;;5010820;28;20520;-59
2022/01/06 07:40:12;;;;;;;3.35;0.75;;;20.40;52.30;;;;;;5012708;28;20053;-58
2022/01/06 07:42:38;;;;;;;2.38;0.70;;;20.40;52.30;;;;;;5012836;28;20042;-58
2022/01/06 07:45:04;;;;;;;2.58;0.50;;;20.40;52.30;;;;;;5011934;28;20050;-58
2022/01/06 07:47:31;;;;;;;3.30;0.70;;;20.40;52.20;;;;;;4998812;28;20126;-58
2022/01/06 07:49:57;;;;;;;1.65;0.50;;;20.50;52.30;;;;;;4992499;28;20148;-59
2022/01/06 07:52:23;;;;;;;3.35;0.80;;;20.50;52.30;;;;;;4991683;28;20498;-58
2022/01/06 07:54:48;;;;;;;3.75;0.68;;;20.50;53.00;;;;;;4990730;28;20077;-58
2022/01/06 07:57:14;;;;;;;3.33;0.60;;;20.50;52.30;;;;;;4992598;28;20509;-58
2022/01/06 07:59:40;;;;;;;2.47;0.60;;;20.50;52.30;;;;;;4993890;28;20050;-58
2022/01/06 08:02:07;;;;;;;2.22;0.60;;;20.40;52.20;;;;;;4996658;28;20054;-58
2022/01/06 08:04:33;;;;;;;1.80;0.50;;;20.50;52.20;;;;;;4996360;28;20042;-58
2022/01/06 08:06:58;;;;;;;3.30;0.80;;;20.50;52.20;;;;;;4995753;28;20042;-57
2022/01/06 08:09:24;;;;;;;2.17;0.68;;;20.50;52.20;;;;;;4996254;28;20065;-58
2022/01/06 08:11:50;;;;;;;4.43;0.80;;;20.50;52.20;;;;;;4996308;28;20056;-57
2022/01/06 08:14:16;;;;;;;4.68;0.80;;;20.50;52.20;;;;;;4994801;28;20047;-58
2022/01/06 08:16:42;;;;;;;5.18;1.00;;;20.50;52.00;;;;;;4995919;28;20054;-58
2022/01/06 08:19:07;;;;;;;4.78;0.88;;;20.50;51.90;;;;;;4996313;28;20046;-58
2022/01/06 08:21:33;;;;;;;3.72;0.70;;;20.50;51.80;;;;;;4994873;28;20042;-58
2022/01/06 08:23:58;;;;;;;2.55;0.73;;;20.50;51.80;;;;;;4996189;28;20070;-58
2022/01/06 08:26:24;;;;;;;4.47;0.68;;;20.50;51.80;;;;;;4994305;28;20449;-58
2022/01/06 08:28:49;;;;;;;3.85;0.90;;;20.50;51.90;;;;;;4994449;28;20081;-59
2022/01/06 08:31:15;;;;;;;4.97;0.90;;;20.50;51.90;;;;;;4996317;28;20042;-59
2022/01/06 08:33:40;;;;;;;5.57;1.02;;;20.50;52.00;;;;;;4995066;28;20049;-59
2022/01/06 08:36:06;;;;;;;4.35;1.08;;;20.50;52.00;;;;;;4994753;28;20042;-59
2022/01/06 08:38:31;;;;;;;3.75;0.82;;;20.50;52.10;;;;;;5001242;28;20046;-57
2022/01/06 08:40:57;;;;;;;4.88;0.93;;;20.50;52.10;;;;;;5003837;28;20050;-58
2022/01/06 08:43:27;;;;;;;5.18;1.27;;;20.50;52.30;;;;;;5004654;28;20034;-58
2022/01/06 08:45:54;;;;;;;11.05;1.10;;;20.50;52.40;;;;;;5003982;28;20030;-58
2022/01/06 08:48:20;;;;;;;5.55;0.95;;;20.50;52.60;;;;;;5009557;28;20054;-58
2022/01/06 08:50:46;;;;;;;3.28;0.90;;;20.50;52.50;;;;;;5005923;28;20103;-59
2022/01/06 08:53:11;;;;;;;3.88;0.70;;;20.60;52.70;;;;;;5004334;28;20043;-58
2022/01/06 08:55:37;;;;;;;4.53;0.77;;;20.60;52.70;;;;;;5004654;28;20065;-58
2022/01/06 08:58:03;;;;;;;5.13;0.85;;;20.60;52.70;;;;;;5003849;28;20800;-58
2022/01/06 09:00:30;;;;;;;5.00;0.80;;;20.60;52.60;;;;;;5010237;28;20044;-58
2022/01/06 09:02:56;;;;;;;3.75;1.02;;;20.60;52.50;;;;;;5009504;28;20050;-58
2022/01/06 09:05:22;;;;;;;4.38;0.60;;;20.60;52.50;;;;;;5001454;28;20474;-58
2022/01/06 09:07:47;;;;;;;4.97;1.27;;;20.60;52.40;;;;;;4997013;28;20077;-58
2022/01/06 09:10:13;;;;;;;6.07;1.88;;;20.60;52.40;;;;;;4994212;28;20088;-58
2022/01/06 09:12:38;;;;;;;5.07;0.90;;;20.60;52.50;;;;;;5003057;28;20081;-58
2022/01/06 09:15:05;;;;;;;6.65;0.93;;;20.60;52.60;;;;;;5003353;28;20050;-58
2022/01/06 09:17:35;;;;;;;8.07;1.42;;;20.70;52.60;;;;;;5004624;28;20085;-58
2022/01/06 09:20:01;;;;;;;4.20;0.80;;;20.70;52.50;;;;;;5005048;28;20050;-58
2022/01/06 09:22:26;;;;;;;6.03;1.08;;;20.70;52.50;;;;;;5003178;28;20103;-58
2022/01/06 09:24:52;;;;;;;3.53;0.90;;;20.70;52.40;;;;;;5004411;28;20046;-58
2022/01/06 09:27:17;;;;;;;4.07;0.90;;;20.70;52.40;;;;;;5004844;28;20034;-58
2022/01/06 09:29:43;;;;;;;4.97;1.13;;;20.70;52.40;;;;;;5001156;28;20129;-59
2022/01/06 09:32:08;;;;;;;3.75;0.93;;;20.70;52.40;;;;;;5004054;28;20044;-59
2022/01/06 09:34:34;;;;;;;3.53;0.80;;;20.80;52.50;;;;;;5002873;28;20366;-59
2022/01/06 09:36:59;;;;;;;6.03;0.80;;;20.80;52.60;;;;;;5004408;28;20393;-58
2022/01/06 09:39:25;;;;;;;4.45;0.90;;;20.80;52.60;;;;;;5003171;28;20140;-58
2022/01/06 09:41:50;;;;;;;5.32;0.70;;;20.80;52.60;;;;;;5003972;28;20476;-58
2022/01/06 09:44:16;;;;;;;5.93;1.25;;;20.80;52.50;;;;;;5006944;28;20088;-57
2022/01/06 09:46:42;;;;;;;4.35;1.15;;;20.80;52.50;;;;;;4996625;28;20096;-59
2022/01/06 09:49:08;;;;;;;5.82;1.33;;;20.80;52.20;;;;;;5014055;28;20053;-58
2022/01/06 09:51:33;;;;;;;4.88;1.00;;;20.80;51.20;;;;;;5012457;28;20065;-58
2022/01/06 09:53:59;;;;;;;6.68;1.60;;;20.80;50.70;;;;;;5006820;28;20402;-58
2022/01/06 09:56:29;;;;;;;6.47;1.52;;;20.80;50.60;;;;;;4994847;28;20124;-55
2022/01/06 09:58:55;;;;;;;5.30;1.38;;;20.80;50.70;;;;;;4993634;28;20038;-57
2022/01/06 10:01:21;;;;;;;5.80;1.27;;;20.80;50.80;;;;;;4994590;28;20052;-58
2022/01/06 10:03:48;;;;;;;5.80;1.30;;;20.80;50.80;;;;;;4994291;28;20043;-58
2022/01/06 10:06:22;;;;;;;6.05;1.42;;;20.80;50.90;;;;;;4993636;28;20078;-58
2022/01/06 10:08:54;;;;;;;5.78;0.95;;;20.80;51.00;;;;;;4989918;28;20046;-58
2022/01/06 10:11:24;;;;;;;8.32;1.52;;;20.80;51.00;;;;;;4994039;28;20056;-58
2022/01/06 10:13:55;;;;;;;7.60;1.38;;;20.80;50.90;;;;;;4992831;28;20490;-58
2022/01/06 10:16:20;;;;;;;7.70;1.65;;;20.80;50.90;;;;;;4992679;28;20105;-57
2022/01/06 10:19:06;;;;;;;7.93;1.25;;;20.80;50.90;;;;;;5003341;28;20041;-57
2022/01/06 10:21:40;;;;;;;6.90;1.33;;;20.80;50.90;;;;;;4999064;28;20042;-57
2022/01/06 10:24:26;;;;;;;4.50;1.02;;;20.80;51.10;;;;;;5002327;28;20042;-58
2022/01/06 10:27:06;;;;;;;4.90;0.90;;;20.80;51.40;;;;;;5004825;28;20072;-58
2022/01/06 10:29:48;;;;;;;5.07;1.30;;;20.80;51.30;;;;;;5013546;28;20065;-57
2022/01/06 10:32:19;;;;;;;5.88;1.08;;;20.80;51.30;;;;;;5013121;28;20056;-58
2022/01/06 10:34:47;;;;;;;7.60;1.20;;;20.90;51.50;;;;;;5011030;28;20045;-58
2022/01/06 10:37:20;;;;;;;6.93;1.48;;;20.80;51.60;;;;;;5013567;28;20037;-58
2022/01/06 10:39:46;;;;;;;6.13;1.38;;;20.90;51.70;;;;;;5013027;28;20157;-58
2022/01/06 10:42:12;;;;;;;7.38;1.35;;;20.90;51.80;;;;;;5011569;28;20470;-58
2022/01/06 10:44:52;;;;;;;6.47;1.20;;;20.90;51.90;;;;;;5013217;28;20038;-58
2022/01/06 10:47:40;;;;;;;7.28;1.60;;;20.90;52.00;;;;;;5011047;28;20045;-58
2022/01/06 10:50:22;;;;;;;6.43;1.10;;;20.90;52.00;;;;;;5013146;28;20046;-58
2022/01/06 10:52:51;;;;;;;4.50;1.23;;;20.90;52.10;;;;;;5011744;28;20042;-59
2022/01/06 10:55:19;;;;;;;6.55;1.20;;;20.90;52.10;;;;;;5010882;28;20089;-59
2022/01/06 10:58:09;;;;;;;5.03;1.42;;;20.90;52.20;;;;;;5012688;28;20120;-58
2022/01/06 11:00:39;;;;;;;4.93;1.00;;;20.90;52.40;;;;;;5012790;28;20077;-58
2022/01/06 11:03:12;;;;;;;7.07;1.30;;;20.90;52.30;;;;;;5011732;28;20042;-58
2022/01/06 11:05:39;;;;;;;4.10;1.20;;;20.90;52.40;;;;;;5013130;28;20046;-58
2022/01/06 11:08:05;;;;;;;4.47;1.10;;;21.00;52.60;;;;;;5010398;28;20064;-58
2022/01/06 11:10:32;;;;;;;6.70;1.35;;;20.90;52.60;;;;;;5011901;28;20037;-58
2022/01/06 11:12:58;;;;;;;5.72;1.50;;;21.00;52.70;;;;;;5012583;28;20053;-58
2022/01/06 11:15:23;;;;;;;5.32;1.30;;;20.90;52.60;;;;;;5011935;28;20079;-58
2022/01/06 11:17:49;;;;;;;4.93;1.10;;;21.00;52.70;;;;;;5011387;28;20045;-58
2022/01/06 11:20:24;;;;;;;5.95;1.38;;;21.00;52.80;;;;;;5011572;28;20045;-58
2022/01/06 11:22:55;;;;;;;5.00;1.13;;;21.00;52.90;;;;;;4993919;28;20128;-58
2022/01/06 11:25:34;;;;;;;4.43;1.10;;;21.00;52.90;;;;;;5011825;28;20049;-58
2022/01/06 11:28:04;;;;;;;6.70;1.10;;;21.00;53.60;;;;;;5012446;28;20092;-58
2022/01/06 11:30:46;;;;;;;4.45;0.98;;;21.00;52.90;;;;;;5011997;28;20096;-57
2022/01/06 11:33:12;;;;;;;7.20;1.63;;;21.00;52.90;;;;;;5015247;28;20397;-58
2022/01/06 11:35:48;;;;;;;7.78;1.65;;;21.00;52.60;;;;;;5017009;28;20041;-58
2022/01/06 11:38:15;;;;;;;4.57;1.60;;;21.00;52.40;;;;;;5016103;28;20038;-58
2022/01/06 11:40:41;;;;;;;6.00;1.92;;;21.00;52.50;;;;;;5004145;28;20046;-59
2022/01/06 11:43:06;;;;;;;4.88;1.63;;;21.00;52.50;;;;;;4996316;28;20069;-58
2022/01/06 11:45:32;;;;;;;6.32;1.40;;;21.00;52.50;;;;;;4996758;28;20042;-58
2022/01/06 11:48:05;;;;;;;6.78;1.27;;;21.00;52.70;;;;;;4996847;28;20405;-58
2022/01/06 11:50:36;;;;;;;4.07;1.02;;;21.00;52.70;;;;;;5005284;28;20068;-59
2022/01/06 11:53:03;;;;;;;4.30;1.20;;;21.00;52.80;;;;;;4993455;28;20103;-59
2022/01/06 11:55:33;;;;;;;7.13;1.40;;;21.00;52.80;;;;;;4996609;28;20046;-59
2022/01/06 11:58:08;;;;;;;5.97;1.20;;;21.00;52.70;;;;;;4995158;28;20074;-59
2022/01/06 12:00:35;;;;;;;6.75;1.30;;;21.00;52.70;;;;;;4996441;28;20050;-59
2022/01/06 12:03:11;;;;;;;5.80;1.20;;;21.00;53.30;;;;;;4996442;28;20050;-59
2022/01/06 12:05:43;;;;;;;5.53;1.10;;;21.00;52.60;;;;;;4996084;28;20046;-59
2022/01/06 12:08:09;;;;;;;4.97;1.50;;;21.00;52.60;;;;;;4996169;28;20088;-58
2022/01/06 12:10:42;;;;;;;6.05;1.40;;;21.00;52.60;;;;;;4996450;28;20164;-58
2022/01/06 12:13:07;;;;;;;10.70;1.42;;;21.00;52.60;;;;;;5002197;28;20039;-58
2022/01/06 12:15:33;;;;;;;7.88;1.50;;;21.00;52.40;;;;;;5004983;28;20041;-57
2022/01/06 12:17:58;;;;;;;5.28;1.40;;;21.00;52.30;;;;;;5005111;28;20034;-59
2022/01/06 12:20:26;;;;;;;8.90;1.50;;;21.00;52.20;;;;;;5005793;28;20449;-59
2022/01/06 12:22:54;;;;;;;6.72;1.65;;;20.90;52.10;;;;;;5014646;28;20040;-59
2022/01/06 12:25:24;;;;;;;6.32;1.55;;;21.00;52.20;;;;;;4998077;28;20406;-58
2022/01/06 12:27:52;;;;;;;6.80;1.58;;;21.00;52.20;;;;;;4995826;28;20105;-59
2022/01/06 12:30:19;;;;;;;7.25;1.70;;;20.90;52.10;;;;;;4996140;28;20054;-59
2022/01/06 12:33:06;;;;;;;6.47;1.75;;;21.00;51.80;;;;;;4995179;28;20374;-59
2022/01/06 12:35:49;;;;;;;8.77;2.20;;;21.00;51.80;;;;;;4996363;28;20076;-59
2022/01/06 12:38:14;;;;;;;8.20;1.55;;;20.90;51.80;;;;;;4996295;28;20041;-59
2022/01/06 12:40:42;;;;;;;6.47;1.40;;;20.90;51.90;;;;;;4995456;28;20047;-59
2022/01/06 12:43:17;;;;;;;5.37;1.40;;;20.90;51.90;;;;;;4995379;28;20434;-59
2022/01/06 12:45:43;;;;;;;6.10;2.08;;;20.90;51.90;;;;;;4994990;28;20785;-59
2022/01/06 12:48:10;;;;;;;5.07;1.38;;;21.00;52.00;;;;;;4993827;28;20046;-59
2022/01/06 12:50:43;;;;;;;6.88;1.30;;;20.90;51.90;;;;;;4995707;28;20427;-59
2022/01/06 12:53:09;;;;;;;5.43;1.58;;;21.00;51.90;;;;;;4995950;28;20192;-59